Terminal Aerodrome Forecast
Issued by NWS

Home | Current Version | Previous Version | Text Only | Print | Product List | Glossary On
Versions: 1 2 3 4 5 6 7 8 9 10 11 12 13 14 15 16 17 18 19 20
232
FTUS42 KFFC 101612 AAA
TAFPDK
TAF AMD
KPDK 101612Z 1016/1112 29015G25KT P6SM BKN040
     FM101900 28015G25KT P6SM SCT060
     FM110000 27010KT P6SM SCT100
     FM110600 27004KT P6SM SCT250=

USA.gov is the U.S. government's official web portal to all federal, state and local government web resources and services.